Time;durP1;ratioP1;P1;durP2;ratioP2;P2;SDS_P1;SDS_P2;PMS_P1;PMS_P2;Temp;Humidity;BMP_temperature;BMP_pressure;BME280_temperature;BME280_humidity;BME280_pressure;Samples;Min_cycle;Max_cycle;Signal;HPM_P1;HPM_P2
2022/03/06 00:00:59;;;;;;;8.10;2.45;;;;;;;-1.23;92.95;102236.84;5065588;28;20278;-75
2022/03/06 00:03:24;;;;;;;5.80;2.13;;;;;;;-1.21;92.76;102232.41;5065944;28;20028;-75
2022/03/06 00:05:49;;;;;;;4.72;2.67;;;;;;;-1.25;92.71;102234.28;5065555;28;20472;-75
2022/03/06 00:08:15;;;;;;;6.93;1.93;;;;;;;-1.23;92.57;102239.47;5065879;28;20341;-75
2022/03/06 00:10:40;;;;;;;8.88;2.25;;;;;;;-1.22;92.56;102231.53;5047105;28;20029;-75
2022/03/06 00:13:06;;;;;;;3.57;2.30;;;;;;;-1.23;92.29;102218.50;5065879;28;20408;-75
2022/03/06 00:15:31;;;;;;;3.65;2.05;;;;;;;-1.33;91.93;102205.69;5065719;28;20282;-75
2022/03/06 00:17:57;;;;;;;5.85;2.42;;;;;;;-1.32;91.60;102202.16;5064363;28;20040;-75
2022/03/06 00:20:23;;;;;;;3.47;1.80;;;;;;;-1.28;91.44;102206.41;5047456;28;20495;-75
2022/03/06 00:22:48;;;;;;;4.25;2.10;;;;;;;-1.22;91.28;102207.94;5047599;28;20029;-75
2022/03/06 00:25:14;;;;;;;4.90;2.10;;;;;;;-1.24;90.92;102196.69;5031268;28;20514;-75
2022/03/06 00:27:39;;;;;;;4.57;2.03;;;;;;;-1.22;90.57;102194.00;5065576;28;20600;-75
2022/03/06 00:30:07;;;;;;;4.20;2.00;;;;;;;-1.16;90.28;102185.94;5047199;28;20525;-75
2022/03/06 00:32:32;;;;;;;4.32;1.67;;;;;;;-1.10;89.37;102181.34;5047595;28;20767;-75
2022/03/06 00:34:58;;;;;;;6.77;1.80;;;;;;;-1.03;88.97;102163.66;5047405;28;20043;-75
2022/03/06 00:37:23;;;;;;;5.53;2.30;;;;;;;-1.02;87.90;102138.28;5064980;28;20275;-75
2022/03/06 00:39:49;;;;;;;3.55;1.88;;;;;;;-1.06;87.27;102127.03;5065302;28;20035;-75
2022/03/06 00:42:14;;;;;;;2.05;1.27;;;;;;;-0.99;86.64;102117.19;5064010;28;20040;-75
2022/03/06 00:44:40;;;;;;;4.53;1.70;;;;;;;-0.98;85.93;102096.19;5030824;28;20503;-75
2022/03/06 00:47:06;;;;;;;3.55;1.90;;;;;;;-0.98;85.21;102079.59;5047327;28;20046;-75
2022/03/06 00:49:33;;;;;;;3.33;1.50;;;;;;;-1.00;84.33;102058.69;5065207;28;20086;-75
2022/03/06 00:51:59;;;;;;;3.03;1.70;;;;;;;-0.94;84.41;102066.28;5030951;28;20115;-75
2022/03/06 00:54:24;;;;;;;3.88;1.30;;;;;;;-0.91;84.37;102067.97;5065360;28;20063;-75
2022/03/06 00:56:50;;;;;;;2.42;1.30;;;;;;;-0.92;83.99;102067.09;5065485;28;21044;-75
2022/03/06 00:59:15;;;;;;;2.73;1.43;;;;;;;-0.87;84.00;102059.94;5064961;28;20028;-75
2022/03/06 01:01:41;;;;;;;4.57;1.73;;;;;;;-0.89;83.61;102043.41;5065413;28;20037;-75
2022/03/06 01:04:07;;;;;;;3.42;1.10;;;;;;;-0.91;83.19;102040.00;5047137;28;20049;-75
2022/03/06 01:06:32;;;;;;;4.60;1.80;;;;;;;-0.85;82.77;102044.13;5065508;28;20072;-75
2022/03/06 01:08:58;;;;;;;4.15;1.45;;;;;;;-0.82;82.77;102036.19;5046825;28;20025;-75
2022/03/06 01:11:23;;;;;;;3.90;1.67;;;;;;;-0.80;82.56;102036.94;5046887;28;20059;-75
2022/03/06 01:13:49;;;;;;;3.78;1.50;;;;;;;-0.78;81.82;102019.38;5065286;28;20489;-75
2022/03/06 01:16:14;;;;;;;2.53;1.48;;;;;;;-0.77;81.64;102015.00;5030865;28;20025;-76
2022/03/06 01:18:40;;;;;;;5.22;1.85;;;;;;;-0.78;81.81;102011.53;5064746;28;20098;-73
2022/03/06 01:21:06;;;;;;;7.78;1.50;;;;;;;-0.73;81.93;102029.69;5047333;28;20127;-73
2022/03/06 01:23:31;;;;;;;3.67;1.83;;;;;;;-0.75;81.62;102014.06;5047514;28;20025;-73
2022/03/06 01:25:57;;;;;;;3.30;1.65;;;;;;;-0.74;81.67;102014.91;5064976;28;20036;-75
2022/03/06 01:28:23;;;;;;;;;;;;;;;-0.76;81.73;102024.59;5065461;28;20040;-73
2022/03/06 01:30:48;;;;;;;2.60;1.48;;;;;;;-0.75;81.50;102019.28;5046744;28;20276;-73
2022/03/06 01:33:13;;;;;;;3.47;1.40;;;;;;;-0.70;81.94;102042.72;5065436;28;20032;-75
2022/03/06 01:35:39;;;;;;;4.13;1.33;;;;;;;-0.65;82.56;102059.97;5064923;28;20312;-73
2022/03/06 01:38:04;;;;;;;1.73;0.95;;;;;;;-0.62;82.39;102068.66;5065312;28;20633;-73
2022/03/06 01:40:30;;;;;;;3.13;2.50;;;;;;;-0.67;82.64;102066.22;5064390;28;20636;-74
2022/03/06 01:42:55;;;;;;;4.70;1.50;;;;;;;-0.66;83.06;102081.03;5047024;28;20420;-73
2022/03/06 01:45:23;;;;;;;4.37;1.73;;;;;;;-0.59;82.83;102077.25;5046935;28;20024;-74
2022/03/06 01:47:51;;;;;;;3.80;1.30;;;;;;;-0.57;82.57;102075.44;5048886;28;20279;-73
2022/03/06 01:50:28;;;;;;;3.40;1.50;;;;;;;-0.59;82.41;102060.66;5068200;28;20104;-74
2022/03/06 01:52:56;;;;;;;4.47;1.38;;;;;;;-0.51;82.69;102069.09;5069197;28;20033;-73
2022/03/06 01:55:24;;;;;;;5.55;1.77;;;;;;;-0.50;82.50;102068.19;5050094;28;20120;-73
2022/03/06 01:57:52;;;;;;;3.92;1.27;;;;;;;-0.54;82.60;102067.47;5051020;28;20388;-73
2022/03/06 02:00:24;;;;;;;5.72;2.05;;;;;;;-0.54;82.73;102077.94;5050117;28;20031;-73
2022/03/06 02:02:50;;;;;;;5.18;1.55;;;;;;;-0.48;82.62;102088.19;5067360;28;20047;-73
2022/03/06 02:05:16;;;;;;;;;;;;;;;-0.50;82.77;102069.03;5068854;28;20546;-73
2022/03/06 02:07:41;;;;;;;4.78;1.67;;;;;;;-0.45;82.41;102066.22;5068238;28;19912;-73
2022/03/06 02:10:08;;;;;;;2.83;1.37;;;;;;;-0.50;82.39;102062.94;5068205;28;20036;-73
2022/03/06 02:12:34;;;;;;;3.15;1.95;;;;;;;-0.40;82.48;102068.69;5068614;28;20373;-74
2022/03/06 02:15:02;;;;;;;3.70;1.70;;;;;;;-0.39;82.36;102070.41;5051015;28;20557;-74
2022/03/06 02:17:29;;;;;;;6.68;2.92;;;;;;;-0.40;82.28;102055.56;5033884;28;20036;-74
2022/03/06 02:20:09;;;;;;;4.10;1.40;;;;;;;-0.39;82.34;102067.78;5068110;28;20097;-73
2022/03/06 02:22:40;;;;;;;2.75;1.33;;;;;;;-0.43;82.35;102062.63;5068458;28;20047;-73
2022/03/06 02:25:09;;;;;;;2.00;1.50;;;;;;;-0.40;82.21;102063.44;5068361;28;20044;-73
2022/03/06 02:27:35;;;;;;;2.17;1.67;;;;;;;-0.36;82.09;102060.63;5072268;28;20475;-73
2022/03/06 02:30:04;;;;;;;3.78;2.42;;;;;;;-0.33;81.86;102055.28;5049845;28;20025;-73
2022/03/06 02:32:29;;;;;;;4.38;2.20;;;;;;;-0.32;81.83;102050.88;5068120;28;20032;-74
2022/03/06 02:34:55;;;;;;;2.60;1.50;;;;;;;-0.29;81.42;102040.25;5068305;28;20043;-73
2022/03/06 02:37:21;;;;;;;1.60;1.30;;;;;;;-0.32;81.03;102027.25;5068108;28;20101;-73
2022/03/06 02:39:46;;;;;;;;;;;;;;;-0.20;80.69;102011.00;5033811;28;20020;-73
2022/03/06 02:42:29;;;;;;;1.67;1.58;;;;;;;-0.26;80.26;101991.13;5067793;28;20270;-73
2022/03/06 02:44:56;;;;;;;3.60;1.58;;;;;;;-0.29;79.81;101975.47;5033487;28;20041;-73
2022/03/06 02:47:21;;;;;;;3.17;1.50;;;;;;;-0.35;79.68;101970.50;5067952;28;20020;-73
2022/03/06 02:49:47;;;;;;;1.73;1.63;;;;;;;-0.31;79.69;101973.84;5050072;28;20036;-73
2022/03/06 02:52:12;;;;;;;1.92;1.35;;;;;;;-0.31;79.76;101965.97;5067720;28;20596;-73
2022/03/06 02:54:38;;;;;;;3.25;2.00;;;;;;;-0.33;79.13;101949.44;5049815;28;20032;-73
2022/03/06 02:57:04;;;;;;;3.35;1.42;;;;;;;-0.28;78.95;101940.47;5067606;28;20031;-73
2022/03/06 02:59:30;;;;;;;2.10;1.90;;;;;;;-0.13;78.66;101953.88;5066346;28;20052;-73
2022/03/06 03:01:55;;;;;;;6.30;1.67;;;;;;;-0.14;77.76;101920.63;5067673;28;20580;-73
2022/03/06 03:04:21;;;;;;;4.53;1.90;;;;;;;-0.19;77.55;101899.84;5067435;28;20036;-73
2022/03/06 03:06:50;;;;;;;3.55;1.75;;;;;;;-0.22;77.29;101894.72;5066576;28;20484;-73
2022/03/06 03:09:20;;;;;;;6.20;2.33;;;;;;;-0.24;77.47;101899.19;5067142;28;20016;-73
2022/03/06 03:11:46;;;;;;;2.72;2.00;;;;;;;-0.23;77.12;101899.13;5049651;28;20039;-73
2022/03/06 03:14:12;;;;;;;4.25;1.67;;;;;;;-0.20;77.03;101899.91;5067359;28;20036;-73
2022/03/06 03:16:38;;;;;;;2.00;1.80;;;;;;;-0.21;76.13;101864.94;5049848;28;20111;-73
2022/03/06 03:19:03;;;;;;;6.57;1.77;;;;;;;-0.19;75.74;101836.84;5065810;28;20705;-73
2022/03/06 03:21:28;;;;;;;4.97;2.77;;;;;;;-0.16;74.82;101818.34;5066317;28;20051;-73
2022/03/06 03:23:54;;;;;;;3.20;2.03;;;;;;;-0.23;73.81;101778.41;5049376;28;20055;-73
2022/03/06 03:26:20;;;;;;;1.73;1.53;;;;;;;-0.21;73.70;101773.09;5049683;28;20789;-73
2022/03/06 03:28:45;;;;;;;2.97;1.85;;;;;;;-0.19;73.46;101770.38;5066986;28;20274;-74
2022/03/06 03:31:11;;;;;;;3.85;1.45;;;;;;;-0.23;73.38;101759.19;5044694;28;20041;-73
2022/03/06 03:33:36;;;;;;;2.37;1.37;;;;;;;-0.26;73.04;101747.03;5032263;28;20120;-73
2022/03/06 03:36:02;;;;;;;3.80;1.57;;;;;;;-0.26;72.83;101739.16;5047046;28;20275;-73
2022/03/06 03:38:27;;;;;;;5.03;1.45;;;;;;;-0.26;72.89;101744.41;5029278;28;20594;-73
2022/03/06 03:40:53;;;;;;;5.60;2.25;;;;;;;-0.28;73.13;101756.75;5046371;28;20064;-73
2022/03/06 03:43:19;;;;;;;5.40;1.48;;;;;;;-0.29;73.40;101783.06;5029306;28;20055;-74
2022/03/06 03:45:44;;;;;;;2.33;1.20;;;;;;;-0.31;74.20;101813.75;5029066;28;20033;-73
2022/03/06 03:48:09;;;;;;;4.93;2.00;;;;;;;-0.30;74.76;101849.59;5046940;28;20470;-73
2022/03/06 03:50:35;;;;;;;5.57;1.88;;;;;;;-0.31;74.61;101842.63;5028872;28;20074;-73
2022/03/06 03:53:00;;;;;;;4.13;1.60;;;;;;;-0.34;74.40;101834.88;5029067;28;20116;-73
2022/03/06 03:55:26;;;;;;;2.27;1.47;;;;;;;-0.36;74.30;101824.44;5046338;28;20037;-73
2022/03/06 03:57:51;;;;;;;2.88;1.50;;;;;;;-0.32;74.41;101833.06;5046722;28;20386;-73
2022/03/06 04:00:16;;;;;;;4.55;1.83;;;;;;;-0.34;74.12;101812.13;5012245;28;20040;-73
2022/03/06 04:02:42;;;;;;;3.72;1.48;;;;;;;-0.35;74.06;101801.69;5046871;28;20029;-73
2022/03/06 04:05:08;;;;;;;3.03;1.63;;;;;;;-0.36;74.28;101816.56;5046462;28;20040;-73
2022/03/06 04:07:34;;;;;;;2.50;1.35;;;;;;;-0.37;74.86;101850.78;5028426;28;20115;-73
2022/03/06 04:09:59;;;;;;;3.67;1.60;;;;;;;-0.38;75.23;101875.28;5062745;22;20636;-74
2022/03/06 04:12:25;;;;;;;2.23;1.30;;;;;;;-0.45;75.91;101912.28;5023887;28;20123;-76
2022/03/06 04:14:50;;;;;;;1.70;1.30;;;;;;;-0.51;75.67;101890.72;5012283;28;20112;-75
2022/03/06 04:17:15;;;;;;;3.03;1.40;;;;;;;-0.48;76.23;101907.16;5029156;28;20087;-77
2022/03/06 04:19:41;;;;;;;3.27;1.77;;;;;;;-0.38;75.64;101902.38;5028786;28;20029;-76
2022/03/06 04:22:06;;;;;;;3.33;1.73;;;;;;;-0.41;75.43;101885.94;5029156;28;20678;-76
2022/03/06 04:24:32;;;;;;;2.55;1.83;;;;;;;-0.44;75.19;101877.25;5029207;28;20033;-77
2022/03/06 04:26:57;;;;;;;1.65;1.27;;;;;;;-0.47;75.66;101887.91;5045706;28;20385;-77
2022/03/06 04:29:23;;;;;;;1.65;1.33;;;;;;;-0.47;76.02;101918.50;5045388;28;20119;-76
2022/03/06 04:31:48;;;;;;;4.80;2.05;;;;;;;-0.40;75.59;101913.84;5045744;28;20333;-76
2022/03/06 04:34:13;;;;;;;4.10;2.03;;;;;;;-0.49;75.45;101892.34;5029054;28;20932;-76
2022/03/06 04:36:39;;;;;;;3.25;1.77;;;;;;;-0.51;75.40;101881.06;5044736;28;20040;-76
2022/03/06 04:39:05;;;;;;;6.10;2.60;;;;;;;-0.53;74.53;101840.06;5044817;28;20063;-76
2022/03/06 04:41:31;;;;;;;2.30;1.65;;;;;;;-0.54;73.49;101792.00;5012341;28;20025;-76
2022/03/06 04:43:57;;;;;;;2.47;1.55;;;;;;;-0.49;73.67;101811.00;5046633;28;20037;-76
2022/03/06 04:46:23;;;;;;;4.90;1.60;;;;;;;-0.52;74.50;101837.34;5045552;28;20067;-76
2022/03/06 04:48:48;;;;;;;5.03;1.95;;;;;;;-0.59;74.96;101841.16;5045128;28;20037;-77
2022/03/06 04:51:14;;;;;;;5.57;1.40;;;;;;;-0.57;75.36;101883.91;5028522;28;20580;-76
2022/03/06 04:53:39;;;;;;;2.20;1.50;;;;;;;-0.55;75.94;101904.84;5029047;28;20295;-75
2022/03/06 04:56:05;;;;;;;3.80;2.50;;;;;;;-0.46;74.85;101876.47;5028843;28;20029;-76
2022/03/06 04:58:31;;;;;;;3.80;1.48;;;;;;;-0.49;74.57;101846.91;5046416;28;20470;-77
2022/03/06 05:00:57;;;;;;;3.17;2.42;;;;;;;-0.50;75.20;101877.50;5012131;28;20047;-76
2022/03/06 05:03:22;;;;;;;2.50;1.30;;;;;;;-0.55;75.15;101886.50;5046529;28;20041;-76
2022/03/06 05:05:49;;;;;;;6.95;1.85;;;;;;;-0.50;74.89;101881.91;5045007;28;20154;-75
2022/03/06 05:08:14;;;;;;;2.95;1.50;;;;;;;-0.48;74.82;101878.28;5027398;28;20041;-74
2022/03/06 05:10:40;;;;;;;3.78;1.60;;;;;;;-0.45;74.86;101875.53;5045609;28;20032;-76
2022/03/06 05:13:05;;;;;;;2.20;1.20;;;;;;;-0.40;74.43;101862.22;5028594;28;20037;-77
2022/03/06 05:15:31;;;;;;;2.85;1.27;;;;;;;-0.35;74.58;101890.91;5046508;28;20029;-77
2022/03/06 05:17:56;;;;;;;2.42;1.67;;;;;;;-0.45;74.79;101888.66;5028444;28;20037;-77
2022/03/06 05:20:22;;;;;;;5.50;2.80;;;;;;;-0.47;75.36;101908.00;5028124;28;20039;-76
2022/03/06 05:22:48;;;;;;;3.30;1.50;;;;;;;-0.47;75.77;101927.25;5013991;28;20033;-75
2022/03/06 05:25:14;;;;;;;8.95;2.13;;;;;;;-0.51;75.68;101916.94;5016096;28;20025;-77
2022/03/06 05:27:40;;;;;;;4.60;2.78;;;;;;;-0.58;75.40;101903.22;5050513;28;20048;-74
2022/03/06 05:30:07;;;;;;;;;;;;;;;-0.53;75.51;101914.38;5016386;28;20020;-77
2022/03/06 05:32:32;;;;;;;7.30;2.28;;;;;;;-0.53;75.66;101919.63;5049128;28;19913;-75
2022/03/06 05:34:58;;;;;;;2.43;1.83;;;;;;;-0.50;75.35;101903.75;5048755;28;20029;-77
2022/03/06 05:37:23;;;;;;;4.60;1.85;;;;;;;-0.50;75.10;101893.25;5032007;28;20107;-76
2022/03/06 05:39:48;;;;;;;2.40;1.63;;;;;;;-0.52;74.88;101887.19;5049131;28;20907;-75
2022/03/06 05:42:14;;;;;;;2.08;1.40;;;;;;;-0.54;75.43;101893.44;5032174;28;20037;-75
2022/03/06 05:44:41;;;;;;;3.05;1.35;;;;;;;-0.62;75.51;101925.22;5032181;28;20039;-75
2022/03/06 05:47:06;;;;;;;6.00;1.50;;;;;;;-0.64;76.17;101929.69;5032083;28;20538;-76
2022/03/06 05:49:32;;;;;;;3.15;1.50;;;;;;;-0.61;76.16;101936.56;5031943;28;20107;-76
2022/03/06 05:51:57;;;;;;;4.17;1.90;;;;;;;-0.60;76.16;101928.66;5048595;28;20047;-76
2022/03/06 05:54:23;;;;;;;3.43;1.23;;;;;;;-0.66;75.58;101905.28;5032126;28;20281;-74
2022/03/06 05:56:48;;;;;;;2.70;1.35;;;;;;;-0.59;75.26;101898.88;5032322;28;20287;-75
2022/03/06 05:59:13;;;;;;;4.88;1.77;;;;;;;-0.60;75.75;101899.78;5031967;28;20040;-76
2022/03/06 06:01:39;;;;;;;1.52;1.17;;;;;;;-0.61;75.17;101884.13;5048707;28;20036;-75
2022/03/06 06:04:04;;;;;;;3.03;1.70;;;;;;;-0.60;75.76;101912.91;5048146;28;20032;-74
2022/03/06 06:06:29;;;;;;;6.40;1.63;;;;;;;-0.56;76.09;101943.38;5049478;28;20821;-74
2022/03/06 06:08:55;;;;;;;3.50;2.17;;;;;;;-0.54;75.71;101933.66;5048817;28;20103;-76
2022/03/06 06:11:21;;;;;;;2.70;1.85;;;;;;;-0.52;75.97;101944.06;5047770;28;20032;-75
2022/03/06 06:13:47;;;;;;;6.78;1.90;;;;;;;-0.54;76.08;101962.53;5048102;28;20029;-76
2022/03/06 06:16:12;;;;;;;3.72;2.17;;;;;;;-0.63;75.68;101934.03;5048301;28;20029;-76
2022/03/06 06:18:38;;;;;;;2.83;2.10;;;;;;;-0.60;75.66;101926.03;5047568;28;20060;-75
2022/03/06 06:21:04;;;;;;;4.43;1.98;;;;;;;-0.51;75.91;101953.66;5013480;28;20294;-76
2022/03/06 06:23:29;;;;;;;5.05;1.95;;;;;;;-0.56;76.05;101956.47;5013241;28;20036;-74
2022/03/06 06:25:55;;;;;;;4.82;2.58;;;;;;;-0.59;76.11;101953.94;5030081;28;20451;-74
2022/03/06 06:28:20;;;;;;;2.85;1.58;;;;;;;-0.55;76.53;101978.31;5046752;28;20074;-75
2022/03/06 06:30:46;;;;;;;3.78;1.80;;;;;;;-0.52;76.01;101955.41;5029410;28;20087;-74
2022/03/06 06:33:11;;;;;;;5.73;2.37;;;;;;;-0.44;76.05;101971.72;5046329;28;20608;-76
2022/03/06 06:35:37;;;;;;;4.03;1.73;;;;;;;-0.32;76.17;102001.00;5045370;28;20366;-75
2022/03/06 06:38:03;;;;;;;3.55;1.65;;;;;;;-0.33;76.06;102005.41;5046327;28;20605;-75
2022/03/06 06:40:29;;;;;;;;;;;;;;;-0.26;76.37;102024.38;5029425;28;20048;-75
2022/03/06 06:42:54;;;;;;;3.65;1.50;;;;;;;-0.20;76.02;102010.16;5029898;28;19912;-74
2022/03/06 06:45:20;;;;;;;2.25;1.55;;;;;;;-0.19;75.94;102004.84;5029594;28;20679;-76
2022/03/06 06:47:45;;;;;;;2.78;1.52;;;;;;;-0.07;75.48;101990.34;5047615;28;20029;-76
2022/03/06 06:50:11;;;;;;;4.03;1.95;;;;;;;-0.03;75.08;101971.78;5029312;28;20037;-74
2022/03/06 06:52:36;;;;;;;6.65;1.83;;;;;;;-0.04;74.49;101940.34;5013153;28;20115;-76
2022/03/06 06:55:03;;;;;;;4.68;2.35;;;;;;;0.14;73.85;101918.56;5012647;28;20032;-76
2022/03/06 06:57:29;;;;;;;5.10;2.35;;;;;;;0.22;73.65;101914.75;5013070;28;20029;-77
2022/03/06 06:59:55;;;;;;;5.80;1.92;;;;;;;0.45;73.04;101909.31;5012621;28;20047;-75
2022/03/06 07:02:20;;;;;;;3.83;1.90;;;;;;;1.03;72.33;101934.69;5045786;28;20093;-76
2022/03/06 07:04:46;;;;;;;2.45;1.88;;;;;;;1.54;71.51;101927.88;5045230;28;20029;-76
2022/03/06 07:07:11;;;;;;;2.13;1.67;;;;;;;2.06;69.54;101858.53;5045608;28;20071;-75
2022/03/06 07:09:36;;;;;;;2.83;1.87;;;;;;;2.37;67.70;101783.16;4971980;28;1179993;-76
2022/03/06 07:12:03;;;;;;;6.97;2.20;;;;;;;2.89;65.97;101735.38;5029570;28;20159;-76
2022/03/06 07:14:29;;;;;;;3.20;2.00;;;;;;;3.19;64.29;101669.41;5046508;28;20040;-76
2022/03/06 07:16:54;;;;;;;3.50;2.20;;;;;;;3.10;62.50;101556.50;5047705;28;20037;-74
2022/03/06 07:19:20;;;;;;;2.90;1.93;;;;;;;2.93;61.80;101497.72;5047690;28;20075;-75
2022/03/06 07:21:45;;;;;;;4.50;2.20;;;;;;;2.95;61.40;101493.19;5046761;28;20371;-76
2022/03/06 07:24:10;;;;;;;6.60;2.17;;;;;;;2.52;60.86;101395.63;5029871;28;20405;-75
2022/03/06 07:26:36;;;;;;;2.33;1.57;;;;;;;2.40;61.25;101449.09;5030075;28;20060;-75
2022/03/06 07:29:02;;;;;;;6.00;3.00;;;;;;;2.25;61.67;101464.03;5029827;28;20540;-76
2022/03/06 07:31:28;;;;;;;3.28;1.85;;;;;;;2.23;62.23;101504.59;5046647;28;20028;-75
2022/03/06 07:33:53;;;;;;;16.13;2.20;;;;;;;1.94;62.25;101472.88;5029671;28;20052;-77
2022/03/06 07:36:18;;;;;;;2.10;1.60;;;;;;;1.92;62.50;101523.94;5029424;28;20915;-75
2022/03/06 07:38:44;;;;;;;3.03;2.07;;;;;;;2.01;62.55;101529.53;5013273;28;20291;-76
2022/03/06 07:41:09;;;;;;;3.37;2.17;;;;;;;2.20;62.77;101578.53;5029319;28;20028;-75
2022/03/06 07:43:35;;;;;;;2.77;1.97;;;;;;;2.78;62.43;101642.84;5034147;28;20021;-76
2022/03/06 07:46:01;;;;;;;;;;;;;;;3.27;61.54;101627.56;5003748;28;20037;-76
2022/03/06 07:48:26;;;;;;;3.33;1.95;;;;;;;2.76;60.79;101479.41;5026707;28;19909;-75
2022/03/06 07:50:52;;;;;;;3.50;2.13;;;;;;;2.70;61.27;101511.47;5024703;28;20075;-76
2022/03/06 07:53:17;;;;;;;5.37;2.40;;;;;;;3.17;61.51;101618.50;5009154;28;20390;-76
2022/03/06 07:55:42;;;;;;;3.77;2.00;;;;;;;4.21;60.66;101680.69;5008856;28;20787;-77
2022/03/06 07:58:08;;;;;;;3.30;2.30;;;;;;;4.30;60.38;101636.06;5008737;28;20021;-76
2022/03/06 08:00:33;;;;;;;5.60;2.20;;;;;;;4.55;61.53;101723.44;5024754;28;20638;-76
2022/03/06 08:02:58;;;;;;;3.23;1.67;;;;;;;4.52;59.89;101604.63;4992446;28;20032;-76
2022/03/06 08:05:24;;;;;;;5.40;2.33;;;;;;;4.69;58.04;101508.25;5008683;28;20041;-75
2022/03/06 08:07:49;;;;;;;4.60;2.00;;;;;;;5.40;56.05;101448.53;5026104;28;20063;-75
2022/03/06 08:10:15;;;;;;;4.63;1.87;;;;;;;5.49;54.94;101373.69;5008096;28;20083;-76
2022/03/06 08:12:41;;;;;;;3.13;1.70;;;;;;;5.96;53.49;101317.25;5026149;28;20029;-76
2022/03/06 08:15:08;;;;;;;4.88;2.55;;;;;;;5.99;52.66;101240.97;5008279;28;20156;-76
2022/03/06 08:17:34;;;;;;;3.88;2.45;;;;;;;6.19;51.60;101217.38;5008222;28;20113;-76
2022/03/06 08:19:59;;;;;;;;;;;;;;;6.40;51.84;101273.16;5024100;28;20099;-76
2022/03/06 08:22:25;;;;;;;;;;;;;;;6.65;51.57;101283.47;5009022;28;19913;-76
2022/03/06 08:24:51;;;;;;;6.50;2.10;;;;;;;7.00;50.70;101255.88;4991715;28;20389;-77
2022/03/06 08:27:17;;;;;;;3.88;2.33;;;;;;;7.05;50.81;101251.03;5026250;28;20056;-76
2022/03/06 08:29:42;;;;;;;4.15;2.17;;;;;;;7.09;50.55;101252.44;5025457;28;20080;-76
2022/03/06 08:32:08;;;;;;;3.95;2.10;;;;;;;7.90;49.88;101294.38;5008162;28;20033;-75
2022/03/06 08:34:33;;;;;;;4.13;2.03;;;;;;;8.34;48.77;101292.34;5025859;28;20500;-76
2022/03/06 08:36:59;;;;;;;8.80;2.97;;;;;;;8.52;47.92;101213.59;5008469;28;20607;-76
2022/03/06 08:39:24;;;;;;;4.37;1.67;;;;;;;8.28;48.73;101243.16;5025233;28;20030;-75
2022/03/06 08:41:49;;;;;;;5.37;2.33;;;;;;;8.76;48.00;101265.59;5029659;28;20065;-76
2022/03/06 08:44:15;;;;;;;6.07;2.47;;;;;;;9.87;46.68;101269.56;5009781;28;20034;-76
2022/03/06 08:46:40;;;;;;;4.77;1.90;;;;;;;9.64;45.88;101141.91;5026214;28;20048;-76
2022/03/06 08:49:05;;;;;;;6.07;2.73;;;;;;;8.72;47.65;101190.47;4992054;28;20049;-77
2022/03/06 08:51:32;;;;;;;6.27;3.13;;;;;;;9.38;47.96;101349.59;5008914;28;20029;-76
2022/03/06 08:53:57;;;;;;;;;;;;;;;9.73;46.97;101290.34;5025958;28;20029;-76
2022/03/06 08:56:23;;;;;;;;;;;;;;;9.28;45.92;101067.16;5009109;28;20222;-77
2022/03/06 08:58:48;;;;;;;5.33;2.43;;;;;;;9.98;47.86;101352.09;5008779;28;20314;-77
2022/03/06 09:01:13;;;;;;;3.37;2.30;;;;;;;10.26;47.99;101384.19;5008698;28;20033;-78
2022/03/06 09:03:39;;;;;;;3.83;2.57;;;;;;;9.94;45.91;101115.97;5025870;28;20517;-76
2022/03/06 09:06:04;;;;;;;4.90;2.83;;;;;;;9.12;46.34;101011.00;5009320;28;20029;-76
2022/03/06 09:08:29;;;;;;;4.73;2.20;;;;;;;7.67;47.68;100950.84;5009796;28;20045;-76
2022/03/06 09:10:55;;;;;;;5.00;2.60;;;;;;;6.79;49.44;101046.16;5025662;28;20033;-76
2022/03/06 09:13:20;;;;;;;7.63;3.00;;;;;;;6.15;50.37;101047.09;5009351;28;20120;-77
2022/03/06 09:15:46;;;;;;;5.30;2.90;;;;;;;6.59;51.82;101317.63;5008351;28;20068;-76
2022/03/06 09:18:11;;;;;;;8.40;2.83;;;;;;;7.40;51.12;101391.53;4992233;28;20581;-77
2022/03/06 09:20:36;;;;;;;6.40;3.37;;;;;;;6.96;50.51;101219.94;5024379;28;20052;-77
2022/03/06 09:23:03;;;;;;;3.73;2.83;;;;;;;6.82;51.41;101286.59;5008632;28;20036;-76
2022/03/06 09:25:32;;;;;;;;;;;;;;;6.41;52.16;101283.63;5024848;28;20060;-76
2022/03/06 09:27:58;;;;;;;6.57;3.25;;;;;;;6.31;53.98;101445.28;5007991;28;20336;-77
2022/03/06 09:30:24;;;;;;;6.97;3.20;;;;;;;7.59;55.14;101736.31;5007658;28;20044;-75
2022/03/06 09:32:49;;;;;;;5.70;2.63;;;;;;;8.13;51.52;101510.50;5024196;28;20041;-75
2022/03/06 09:35:14;;;;;;;4.53;2.70;;;;;;;8.59;48.61;101320.31;5007734;28;20058;-76
2022/03/06 09:37:40;;;;;;;6.90;3.10;;;;;;;9.05;47.30;101252.28;5008283;28;20410;-76
2022/03/06 09:40:06;;;;;;;4.43;2.80;;;;;;;9.03;45.50;101100.59;5007995;28;20049;-75
2022/03/06 09:42:32;;;;;;;6.63;2.53;;;;;;;8.63;45.21;100989.03;5011487;28;20061;-77
2022/03/06 09:45:02;;;;;;;;;;;;;;;8.73;45.19;101018.28;5027219;28;20132;-77
2022/03/06 09:47:27;;;;;;;6.47;2.50;;;;;;;8.50;45.57;101023.06;5010572;28;20293;-76
2022/03/06 09:49:52;;;;;;;6.53;2.70;;;;;;;8.24;46.14;101023.63;5024526;28;20021;-76
2022/03/06 09:52:18;;;;;;;4.33;2.33;;;;;;;8.45;45.98;101096.22;5007821;28;20030;-76
2022/03/06 09:54:43;;;;;;;5.43;2.83;;;;;;;8.86;45.26;101098.69;5007459;28;20604;-76
2022/03/06 09:57:09;;;;;;;7.07;2.50;;;;;;;8.31;45.04;100930.78;5007193;28;20071;-76
2022/03/06 09:59:34;;;;;;;6.07;2.63;;;;;;;7.04;46.46;100872.31;5018565;28;20723;-75
2022/03/06 10:02:01;;;;;;;7.82;3.08;;;;;;;7.66;47.01;101093.53;5026908;28;20123;-76
2022/03/06 10:04:30;;;;;;;6.18;2.47;;;;;;;7.86;46.84;101070.47;5026915;28;20108;-77
2022/03/06 10:07:07;;;;;;;5.15;2.45;;;;;;;7.69;46.54;101002.06;5027033;28;20033;-76
2022/03/06 10:09:40;;;;;;;5.18;2.42;;;;;;;7.63;47.00;101055.75;5055336;22;21950;-71
2022/03/06 10:12:17;;;;;;;4.70;2.80;;;;;;;8.40;46.16;101127.69;5064726;28;20028;-72
2022/03/06 10:14:44;;;;;;;5.63;3.03;;;;;;;9.35;45.30;101224.63;5062991;28;20051;-71
2022/03/06 10:17:18;;;;;;;3.47;2.58;;;;;;;9.60;43.66;101089.91;5047124;28;20035;-72
2022/03/06 10:20:00;;;;;;;4.57;2.70;;;;;;;8.50;43.58;100839.47;5066790;28;20033;-72
2022/03/06 10:22:29;;;;;;;4.95;2.65;;;;;;;9.13;44.97;101113.06;5055695;28;20364;-72
2022/03/06 10:25:00;;;;;;;4.78;3.00;;;;;;;9.55;44.05;101084.16;5046383;28;20485;-72
2022/03/06 10:27:46;;;;;;;5.82;2.83;;;;;;;10.21;43.53;101143.59;5030122;28;20059;-72
2022/03/06 10:30:21;;;;;;;4.07;2.60;;;;;;;10.75;41.37;101014.47;5029711;28;20032;-72
2022/03/06 10:32:47;;;;;;;3.70;2.35;;;;;;;9.61;41.93;100827.66;5047934;28;20056;-72
2022/03/06 10:35:12;;;;;;;4.63;2.83;;;;;;;10.54;42.62;101118.94;5047987;28;20033;-72
2022/03/06 10:37:38;;;;;;;4.93;3.03;;;;;;;11.14;42.23;101163.69;5048184;28;20029;-72
2022/03/06 10:40:03;;;;;;;4.50;2.83;;;;;;;10.51;41.79;100952.88;5029331;28;20503;-72
2022/03/06 10:42:29;;;;;;;7.30;2.90;;;;;;;10.47;41.98;100973.72;5047968;28;20025;-73
2022/03/06 10:44:54;;;;;;;4.57;3.10;;;;;;;10.90;42.16;101073.47;5047590;28;20470;-72
2022/03/06 10:47:20;;;;;;;6.23;2.93;;;;;;;10.65;41.79;100951.47;5029840;28;20056;-72
2022/03/06 10:50:05;;;;;;;6.53;3.00;;;;;;;10.30;42.66;100977.25;5047218;28;20500;-72
2022/03/06 10:52:40;;;;;;;5.05;2.35;;;;;;;11.19;42.16;101128.44;5029692;28;20040;-72
2022/03/06 10:55:06;;;;;;;6.13;3.20;;;;;;;11.49;41.23;101048.75;5047102;28;20044;-72
2022/03/06 10:57:31;;;;;;;4.75;2.75;;;;;;;10.78;41.90;100971.41;5047473;28;20029;-72
2022/03/06 10:59:58;;;;;;;9.70;3.20;;;;;;;9.76;42.87;100899.94;5028998;28;20120;-72
2022/03/06 11:02:25;;;;;;;7.45;3.20;;;;;;;9.77;43.89;101002.09;5029569;28;20041;-71
2022/03/06 11:04:53;;;;;;;15.70;4.38;;;;;;;10.32;44.03;101132.72;5047527;28;20028;-72
2022/03/06 11:07:19;;;;;;;5.35;2.83;;;;;;;10.46;42.50;101036.09;5046974;28;20040;-72
2022/03/06 11:09:46;;;;;;;6.20;2.55;;;;;;;10.82;42.57;101078.78;5028590;28;20397;-72
2022/03/06 11:12:12;;;;;;;7.65;3.10;;;;;;;10.00;43.19;100952.66;5029060;28;20021;-72
2022/03/06 11:14:38;;;;;;;6.35;3.30;;;;;;;8.59;44.92;100878.50;5029379;28;20033;-72
2022/03/06 11:17:03;;;;;;;9.70;3.90;;;;;;;8.31;45.60;100942.31;5012860;28;20039;-73
2022/03/06 11:19:32;;;;;;;5.30;3.05;;;;;;;8.38;46.15;101020.56;5046549;28;20033;-72
2022/03/06 11:22:19;;;;;;;4.63;2.53;;;;;;;9.61;45.60;101216.88;5046493;28;20040;-72
2022/03/06 11:24:52;;;;;;;7.57;3.25;;;;;;;10.22;44.88;101236.00;5047177;28;20045;-71
2022/03/06 11:27:36;;;;;;;7.55;2.80;;;;;;;11.11;42.98;101189.88;5029215;28;20033;-72